JES3261 SARC-SABE
Flight info
| Callsign | JES3261 |
|---|---|
| Flight time | 1h 6m |
| Altitude | 36000 |
| Route | KILIP2K KILIP UL793 GUA UZ129 PAGON PAGON8Q |
| Aircraft | A320/M-SDE3FGHIRWY/LB1 |
Departure
| Time | 2026-05-06 20:53 |
|---|---|
| Airport | Corrientes Airport (SARC) |
Arrival
| Time | 2026-05-06 21:59 |
|---|---|
| Airport | Aeroparque Jorge Newbery (SABE) |
| Time | Latitude | Longitude | Altitude | Speed | Heading |
|---|---|---|---|---|---|
| 2026-05-06 20:30 | -27.44887 | -58.75849 | 209 ft | 0 kts | 241° |
| 2026-05-06 20:45 | -27.44881 | -58.75837 | 209 ft | 2 kts | 241° |
| 2026-05-06 20:45 | -27.44872 | -58.75822 | 209 ft | 2 kts | 221° |
| 2026-05-06 20:45 | -27.44861 | -58.75814 | 209 ft | 1 kts | 231° |
| 2026-05-06 20:45 | -27.44857 | -58.75803 | 209 ft | 0 kts | 276° |
| 2026-05-06 20:46 | -27.44859 | -58.75796 | 209 ft | 1 kts | 282° |
| 2026-05-06 20:46 | -27.44859 | -58.75794 | 209 ft | 0 kts | 282° |
| 2026-05-06 20:48 | -27.44858 | -58.75805 | 209 ft | 6 kts | 273° |
| 2026-05-06 20:48 | -27.44855 | -58.75851 | 209 ft | 6 kts | 275° |
| 2026-05-06 20:48 | -27.44854 | -58.75907 | 209 ft | 7 kts | 271° |
| 2026-05-06 20:49 | -27.44850 | -58.75970 | 209 ft | 8 kts | 277° |
| 2026-05-06 20:49 | -27.44841 | -58.76040 | 209 ft | 9 kts | 279° |
| 2026-05-06 20:49 | -27.44829 | -58.76115 | 209 ft | 10 kts | 280° |
| 2026-05-06 20:49 | -27.44823 | -58.76197 | 209 ft | 11 kts | 253° |
| 2026-05-06 20:50 | -27.44923 | -58.76250 | 209 ft | 21 kts | 188° |
| 2026-05-06 20:50 | -27.45070 | -58.76273 | 209 ft | 20 kts | 188° |
| 2026-05-06 20:50 | -27.45212 | -58.76293 | 209 ft | 20 kts | 187° |
| 2026-05-06 20:50 | -27.45349 | -58.76316 | 209 ft | 19 kts | 187° |
| 2026-05-06 20:51 | -27.45462 | -58.76327 | 209 ft | 12 kts | 167° |
| 2026-05-06 20:51 | -27.45521 | -58.76325 | 209 ft | 6 kts | 231° |
| 2026-05-06 20:51 | -27.45507 | -58.76345 | 209 ft | 2 kts | 19° |
| 2026-05-06 20:51 | -27.45490 | -58.76340 | 209 ft | 0 kts | 8° |
| 2026-05-06 20:52 | -27.45399 | -58.76325 | 210 ft | 46 kts | 10° |
| 2026-05-06 20:52 | -27.44814 | -58.76233 | 210 ft | 119 kts | 7° |
| 2026-05-06 20:53 | -27.43840 | -58.76082 | 460 ft | 152 kts | 11° |
| 2026-05-06 20:53 | -27.42799 | -58.75926 | 1169 ft | 150 kts | 12° |
| 2026-05-06 20:53 | -27.41820 | -58.75776 | 1919 ft | 143 kts | 9° |
| 2026-05-06 20:53 | -27.40756 | -58.75608 | 2225 ft | 162 kts | 9° |
| 2026-05-06 20:54 | -27.39608 | -58.75436 | 2649 ft | 175 kts | 8° |
| 2026-05-06 20:54 | -27.38423 | -58.75084 | 3207 ft | 183 kts | 26° |
| 2026-05-06 20:54 | -27.37508 | -58.74055 | 3847 ft | 197 kts | 52° |
| 2026-05-06 20:54 | -27.37164 | -58.72426 | 4166 ft | 240 kts | 87° |
| 2026-05-06 20:55 | -27.37835 | -58.70571 | 4583 ft | 280 kts | 124° |
| 2026-05-06 20:55 | -27.39484 | -58.69237 | 4986 ft | 309 kts | 159° |
| 2026-05-06 20:55 | -27.41617 | -58.68913 | 5545 ft | 319 kts | 185° |
| 2026-05-06 20:55 | -27.43849 | -58.69051 | 6315 ft | 322 kts | 187° |
| 2026-05-06 20:56 | -27.46072 | -58.69233 | 7081 ft | 324 kts | 188° |
| 2026-05-06 20:56 | -27.48340 | -58.69423 | 7817 ft | 327 kts | 188° |
| 2026-05-06 20:56 | -27.50621 | -58.69605 | 8535 ft | 329 kts | 189° |
| 2026-05-06 20:56 | -27.52888 | -58.69777 | 9192 ft | 331 kts | 189° |
| 2026-05-06 20:57 | -27.55187 | -58.69947 | 9836 ft | 332 kts | 189° |
| 2026-05-06 20:57 | -27.57509 | -58.70121 | 10337 ft | 339 kts | 189° |
| 2026-05-06 20:57 | -27.59919 | -58.70304 | 10596 ft | 353 kts | 188° |
| 2026-05-06 20:57 | -27.62421 | -58.70489 | 10905 ft | 367 kts | 188° |
| 2026-05-06 20:58 | -27.64991 | -58.70673 | 11368 ft | 372 kts | 188° |
| 2026-05-06 20:58 | -27.67584 | -58.70855 | 11956 ft | 372 kts | 188° |
| 2026-05-06 20:58 | -27.70170 | -58.71039 | 12541 ft | 372 kts | 188° |
| 2026-05-06 20:58 | -27.72749 | -58.71223 | 13104 ft | 372 kts | 187° |
| 2026-05-06 20:59 | -27.75318 | -58.71407 | 13618 ft | 374 kts | 188° |
| 2026-05-06 20:59 | -27.77944 | -58.71595 | 14139 ft | 375 kts | 188° |
| 2026-05-06 20:59 | -27.80546 | -58.71782 | 14645 ft | 377 kts | 188° |
| 2026-05-06 20:59 | -27.83187 | -58.71974 | 15142 ft | 379 kts | 188° |
| 2026-05-06 21:00 | -27.85813 | -58.72192 | 15614 ft | 381 kts | 188° |
| 2026-05-06 21:00 | -27.88467 | -58.72429 | 16098 ft | 383 kts | 188° |
| 2026-05-06 21:00 | -27.91129 | -58.72669 | 16574 ft | 385 kts | 188° |
| 2026-05-06 21:00 | -27.93804 | -58.72907 | 17054 ft | 388 kts | 188° |
| 2026-05-06 21:01 | -27.96505 | -58.73148 | 17538 ft | 390 kts | 188° |
| 2026-05-06 21:01 | -27.99232 | -58.73388 | 18016 ft | 392 kts | 188° |
| 2026-05-06 21:01 | -28.01957 | -58.73627 | 18494 ft | 394 kts | 189° |
| 2026-05-06 21:01 | -28.04682 | -58.73868 | 18958 ft | 396 kts | 189° |
| 2026-05-06 21:02 | -28.07441 | -58.74112 | 19439 ft | 398 kts | 189° |
| 2026-05-06 21:02 | -28.10220 | -58.74357 | 19927 ft | 400 kts | 189° |
| 2026-05-06 21:02 | -28.13026 | -58.74605 | 20401 ft | 401 kts | 189° |
| 2026-05-06 21:02 | -28.15817 | -58.74850 | 20885 ft | 403 kts | 189° |
| 2026-05-06 21:03 | -28.18598 | -58.75096 | 21342 ft | 404 kts | 189° |
| 2026-05-06 21:03 | -28.21421 | -58.75346 | 21795 ft | 406 kts | 189° |
| 2026-05-06 21:03 | -28.24224 | -58.75596 | 22233 ft | 408 kts | 189° |
| 2026-05-06 21:03 | -28.27082 | -58.75850 | 22663 ft | 410 kts | 189° |
| 2026-05-06 21:04 | -28.29920 | -58.76099 | 23072 ft | 413 kts | 190° |
| 2026-05-06 21:04 | -28.32814 | -58.76356 | 23461 ft | 416 kts | 190° |
| 2026-05-06 21:04 | -28.35704 | -58.76611 | 23850 ft | 418 kts | 191° |
| 2026-05-06 21:04 | -28.38631 | -58.76870 | 24246 ft | 420 kts | 191° |
| 2026-05-06 21:05 | -28.41539 | -58.77128 | 24617 ft | 423 kts | 191° |
| 2026-05-06 21:05 | -28.44487 | -58.77390 | 24956 ft | 426 kts | 191° |
| 2026-05-06 21:05 | -28.47461 | -58.77655 | 25296 ft | 428 kts | 191° |
| 2026-05-06 21:05 | -28.50444 | -58.77920 | 25672 ft | 430 kts | 192° |
| 2026-05-06 21:06 | -28.53439 | -58.78186 | 26033 ft | 432 kts | 192° |
| 2026-05-06 21:06 | -28.56416 | -58.78451 | 26344 ft | 435 kts | 192° |
| 2026-05-06 21:06 | -28.59459 | -58.78724 | 26669 ft | 438 kts | 192° |
| 2026-05-06 21:06 | -28.62516 | -58.78995 | 27027 ft | 439 kts | 192° |
| 2026-05-06 21:07 | -28.65546 | -58.79266 | 27339 ft | 441 kts | 193° |
| 2026-05-06 21:07 | -28.68622 | -58.79541 | 27667 ft | 443 kts | 193° |
| 2026-05-06 21:07 | -28.71729 | -58.79820 | 27971 ft | 446 kts | 193° |
| 2026-05-06 21:07 | -28.74837 | -58.80099 | 28266 ft | 448 kts | 193° |
| 2026-05-06 21:08 | -28.77950 | -58.80378 | 28564 ft | 450 kts | 193° |
| 2026-05-06 21:08 | -28.81052 | -58.80654 | 28851 ft | 452 kts | 193° |
| 2026-05-06 21:08 | -28.84236 | -58.80939 | 29151 ft | 454 kts | 193° |
| 2026-05-06 21:08 | -28.87404 | -58.81222 | 29396 ft | 457 kts | 194° |
| 2026-05-06 21:09 | -28.90549 | -58.81506 | 29678 ft | 459 kts | 194° |
| 2026-05-06 21:09 | -28.93745 | -58.81793 | 29965 ft | 460 kts | 194° |
| 2026-05-06 21:09 | -28.96961 | -58.82081 | 30262 ft | 461 kts | 194° |
| 2026-05-06 21:09 | -29.00146 | -58.82365 | 30626 ft | 460 kts | 194° |
| 2026-05-06 21:10 | -29.03311 | -58.82647 | 30968 ft | 459 kts | 194° |
| 2026-05-06 21:10 | -29.06505 | -58.82932 | 31344 ft | 458 kts | 195° |
| 2026-05-06 21:10 | -29.09675 | -58.83218 | 31668 ft | 457 kts | 195° |
| 2026-05-06 21:10 | -29.12861 | -58.83503 | 32043 ft | 455 kts | 195° |
| 2026-05-06 21:11 | -29.16010 | -58.83787 | 32386 ft | 453 kts | 195° |
| 2026-05-06 21:11 | -29.19139 | -58.84068 | 32696 ft | 453 kts | 195° |
| 2026-05-06 21:11 | -29.22260 | -58.84350 | 33012 ft | 451 kts | 196° |
| 2026-05-06 21:11 | -29.25411 | -58.84637 | 33301 ft | 451 kts | 196° |
| 2026-05-06 21:12 | -29.28554 | -58.84922 | 33660 ft | 450 kts | 196° |
| 2026-05-06 21:12 | -29.31658 | -58.85203 | 34070 ft | 448 kts | 196° |
| 2026-05-06 21:12 | -29.34733 | -58.85480 | 34451 ft | 446 kts | 197° |
| 2026-05-06 21:12 | -29.37831 | -58.85762 | 34702 ft | 446 kts | 196° |
| 2026-05-06 21:13 | -29.40944 | -58.86047 | 34990 ft | 446 kts | 197° |
| 2026-05-06 21:13 | -29.44032 | -58.86328 | 35184 ft | 447 kts | 197° |
| 2026-05-06 21:13 | -29.47152 | -58.86612 | 35398 ft | 448 kts | 197° |
| 2026-05-06 21:13 | -29.50262 | -58.86894 | 35606 ft | 449 kts | 197° |
| 2026-05-06 21:14 | -29.53373 | -58.87178 | 35742 ft | 448 kts | 197° |
| 2026-05-06 21:14 | -29.59620 | -58.87747 | 35750 ft | 449 kts | 197° |
| 2026-05-06 21:15 | -29.65838 | -58.88269 | 35751 ft | 454 kts | 194° |
| 2026-05-06 21:15 | -29.72232 | -58.88182 | 35751 ft | 465 kts | 188° |
| 2026-05-06 21:16 | -29.78727 | -58.87675 | 35751 ft | 464 kts | 188° |
| 2026-05-06 21:16 | -29.85176 | -58.87153 | 35752 ft | 465 kts | 188° |
| 2026-05-06 21:17 | -29.91633 | -58.86639 | 35754 ft | 467 kts | 188° |
| 2026-05-06 21:17 | -29.98092 | -58.86129 | 35756 ft | 465 kts | 188° |
| 2026-05-06 21:18 | -30.04594 | -58.85618 | 35756 ft | 465 kts | 188° |
| 2026-05-06 21:18 | -30.11068 | -58.85107 | 35759 ft | 466 kts | 188° |
| 2026-05-06 21:19 | -30.17524 | -58.84598 | 35757 ft | 467 kts | 188° |
| 2026-05-06 21:19 | -30.24035 | -58.84082 | 35763 ft | 468 kts | 188° |
| 2026-05-06 21:20 | -30.30540 | -58.83567 | 35763 ft | 468 kts | 189° |
| 2026-05-06 21:20 | -30.37028 | -58.83050 | 35764 ft | 465 kts | 189° |
| 2026-05-06 21:21 | -30.43469 | -58.82540 | 35770 ft | 465 kts | 189° |
| 2026-05-06 21:21 | -30.49978 | -58.82025 | 35771 ft | 468 kts | 189° |
| 2026-05-06 21:22 | -30.56447 | -58.81477 | 35774 ft | 468 kts | 188° |
| 2026-05-06 21:22 | -30.62941 | -58.80916 | 35772 ft | 467 kts | 189° |
| 2026-05-06 21:23 | -30.69441 | -58.80361 | 35764 ft | 469 kts | 189° |
| 2026-05-06 21:23 | -30.75925 | -58.79805 | 35766 ft | 468 kts | 189° |
| 2026-05-06 21:24 | -30.82456 | -58.79242 | 35763 ft | 468 kts | 189° |
| 2026-05-06 21:24 | -30.88916 | -58.78686 | 35755 ft | 467 kts | 189° |
| 2026-05-06 21:25 | -30.95456 | -58.78134 | 35756 ft | 469 kts | 189° |
| 2026-05-06 21:25 | -31.01946 | -58.77622 | 35758 ft | 468 kts | 189° |
| 2026-05-06 21:26 | -31.08427 | -58.77111 | 35762 ft | 467 kts | 189° |
| 2026-05-06 21:26 | -31.14910 | -58.76599 | 35756 ft | 466 kts | 189° |
| 2026-05-06 21:27 | -31.21420 | -58.76087 | 35759 ft | 468 kts | 189° |
| 2026-05-06 21:27 | -31.27919 | -58.75571 | 35759 ft | 469 kts | 189° |
| 2026-05-06 21:28 | -31.34414 | -58.75104 | 35742 ft | 465 kts | 192° |
| 2026-05-06 21:28 | -31.40855 | -58.75028 | 35752 ft | 460 kts | 193° |
| 2026-05-06 21:29 | -31.47233 | -58.74995 | 35752 ft | 460 kts | 193° |
| 2026-05-06 21:29 | -31.53641 | -58.74937 | 35758 ft | 461 kts | 193° |
| 2026-05-06 21:30 | -31.60071 | -58.74867 | 35760 ft | 463 kts | 193° |
| 2026-05-06 21:30 | -31.66536 | -58.74786 | 35757 ft | 462 kts | 192° |
| 2026-05-06 21:31 | -31.72977 | -58.74707 | 35759 ft | 462 kts | 192° |
| 2026-05-06 21:31 | -31.79373 | -58.74627 | 35747 ft | 462 kts | 192° |
| 2026-05-06 21:32 | -31.85788 | -58.74546 | 35753 ft | 461 kts | 192° |
| 2026-05-06 21:32 | -31.95411 | -58.74430 | 35747 ft | 463 kts | 192° |
| 2026-05-06 21:33 | -32.01856 | -58.74348 | 35745 ft | 462 kts | 192° |
| 2026-05-06 21:33 | -32.08313 | -58.74267 | 35742 ft | 463 kts | 192° |
| 2026-05-06 21:34 | -32.14782 | -58.74189 | 35739 ft | 464 kts | 192° |
| 2026-05-06 21:34 | -32.21225 | -58.74106 | 35744 ft | 463 kts | 192° |
| 2026-05-06 21:35 | -32.27673 | -58.74023 | 35736 ft | 462 kts | 192° |
| 2026-05-06 21:35 | -32.34099 | -58.73944 | 35744 ft | 463 kts | 192° |
| 2026-05-06 21:36 | -32.40547 | -58.73869 | 35626 ft | 464 kts | 192° |
| 2026-05-06 21:36 | -32.43747 | -58.73832 | 35357 ft | 463 kts | 192° |
| 2026-05-06 21:36 | -32.46977 | -58.73793 | 35077 ft | 459 kts | 191° |
| 2026-05-06 21:37 | -32.50152 | -58.73754 | 34697 ft | 457 kts | 192° |
| 2026-05-06 21:37 | -32.53336 | -58.73716 | 34182 ft | 456 kts | 191° |
| 2026-05-06 21:37 | -32.56510 | -58.73680 | 33591 ft | 457 kts | 191° |
| 2026-05-06 21:37 | -32.59653 | -58.73650 | 32966 ft | 457 kts | 190° |
| 2026-05-06 21:38 | -32.62853 | -58.73620 | 32278 ft | 460 kts | 190° |
| 2026-05-06 21:38 | -32.66073 | -58.73589 | 31574 ft | 462 kts | 189° |
| 2026-05-06 21:38 | -32.69276 | -58.73555 | 30859 ft | 465 kts | 188° |
| 2026-05-06 21:38 | -32.72523 | -58.73519 | 30110 ft | 468 kts | 187° |
| 2026-05-06 21:39 | -32.75782 | -58.73480 | 29465 ft | 468 kts | 186° |
| 2026-05-06 21:39 | -32.79023 | -58.73431 | 28980 ft | 463 kts | 186° |
| 2026-05-06 21:39 | -32.82196 | -58.73382 | 28501 ft | 459 kts | 186° |
| 2026-05-06 21:39 | -32.85393 | -58.73338 | 28028 ft | 454 kts | 186° |
| 2026-05-06 21:40 | -32.88519 | -58.73299 | 27551 ft | 450 kts | 186° |
| 2026-05-06 21:40 | -32.91650 | -58.73260 | 27072 ft | 447 kts | 186° |
| 2026-05-06 21:40 | -32.94754 | -58.73223 | 26582 ft | 443 kts | 186° |
| 2026-05-06 21:40 | -32.97831 | -58.73187 | 26117 ft | 440 kts | 186° |
| 2026-05-06 21:41 | -33.00883 | -58.73189 | 25611 ft | 436 kts | 187° |
| 2026-05-06 21:41 | -33.03915 | -58.73262 | 25133 ft | 432 kts | 188° |
| 2026-05-06 21:41 | -33.06879 | -58.73343 | 24674 ft | 429 kts | 187° |
| 2026-05-06 21:41 | -33.09852 | -58.73421 | 24205 ft | 426 kts | 187° |
| 2026-05-06 21:42 | -33.12810 | -58.73494 | 23731 ft | 423 kts | 187° |
| 2026-05-06 21:42 | -33.15787 | -58.73565 | 23254 ft | 420 kts | 187° |
| 2026-05-06 21:42 | -33.18703 | -58.73634 | 22780 ft | 418 kts | 187° |
| 2026-05-06 21:42 | -33.21606 | -58.73703 | 22315 ft | 415 kts | 187° |
| 2026-05-06 21:43 | -33.24472 | -58.73766 | 21859 ft | 412 kts | 187° |
| 2026-05-06 21:43 | -33.27323 | -58.73831 | 21395 ft | 410 kts | 186° |
| 2026-05-06 21:43 | -33.30154 | -58.73896 | 20938 ft | 408 kts | 186° |
| 2026-05-06 21:43 | -33.33017 | -58.73958 | 20466 ft | 407 kts | 186° |
| 2026-05-06 21:44 | -33.35835 | -58.74022 | 20011 ft | 405 kts | 186° |
| 2026-05-06 21:44 | -33.38623 | -58.74086 | 19553 ft | 403 kts | 186° |
| 2026-05-06 21:44 | -33.41444 | -58.74151 | 19086 ft | 402 kts | 186° |
| 2026-05-06 21:44 | -33.44215 | -58.74213 | 18631 ft | 401 kts | 186° |
| 2026-05-06 21:45 | -33.47014 | -58.74278 | 18164 ft | 399 kts | 186° |
| 2026-05-06 21:45 | -33.49788 | -58.74340 | 17698 ft | 398 kts | 185° |
| 2026-05-06 21:45 | -33.52563 | -58.74402 | 17229 ft | 397 kts | 185° |
| 2026-05-06 21:45 | -33.55329 | -58.74465 | 16759 ft | 396 kts | 185° |
| 2026-05-06 21:46 | -33.58068 | -58.74525 | 16298 ft | 394 kts | 185° |
| 2026-05-06 21:46 | -33.60786 | -58.74585 | 15839 ft | 393 kts | 186° |
| 2026-05-06 21:46 | -33.63544 | -58.74494 | 15339 ft | 396 kts | 178° |
| 2026-05-06 21:46 | -33.66258 | -58.74049 | 14782 ft | 398 kts | 175° |
| 2026-05-06 21:47 | -33.69025 | -58.73508 | 14183 ft | 400 kts | 174° |
| 2026-05-06 21:47 | -33.71764 | -58.72987 | 13578 ft | 402 kts | 175° |
| 2026-05-06 21:47 | -33.74523 | -58.72492 | 12971 ft | 403 kts | 175° |
| 2026-05-06 21:47 | -33.77292 | -58.72018 | 12369 ft | 403 kts | 175° |
| 2026-05-06 21:48 | -33.80084 | -58.71550 | 11978 ft | 398 kts | 175° |
| 2026-05-06 21:48 | -33.82800 | -58.71099 | 11590 ft | 392 kts | 175° |
| 2026-05-06 21:48 | -33.85453 | -58.70659 | 10980 ft | 382 kts | 175° |
| 2026-05-06 21:48 | -33.88028 | -58.70234 | 10307 ft | 370 kts | 175° |
| 2026-05-06 21:49 | -33.90522 | -58.69821 | 9994 ft | 350 kts | 175° |
| 2026-05-06 21:49 | -33.92893 | -58.69411 | 9766 ft | 341 kts | 175° |
| 2026-05-06 21:49 | -33.95205 | -58.68980 | 9577 ft | 333 kts | 174° |
| 2026-05-06 21:49 | -33.97489 | -58.68551 | 9215 ft | 333 kts | 174° |
| 2026-05-06 21:50 | -33.99800 | -58.68116 | 8849 ft | 334 kts | 174° |
| 2026-05-06 21:50 | -34.02097 | -58.67688 | 8492 ft | 334 kts | 174° |
| 2026-05-06 21:50 | -34.04382 | -58.67259 | 8134 ft | 334 kts | 174° |
| 2026-05-06 21:50 | -34.06692 | -58.66826 | 7771 ft | 334 kts | 174° |
| 2026-05-06 21:51 | -34.08989 | -58.66393 | 7491 ft | 331 kts | 174° |
| 2026-05-06 21:51 | -34.11263 | -58.65968 | 7132 ft | 331 kts | 174° |
| 2026-05-06 21:51 | -34.13535 | -58.65542 | 6836 ft | 329 kts | 174° |
| 2026-05-06 21:51 | -34.15802 | -58.65115 | 6508 ft | 328 kts | 174° |
| 2026-05-06 21:52 | -34.18050 | -58.64693 | 6116 ft | 329 kts | 174° |
| 2026-05-06 21:52 | -34.20288 | -58.64273 | 5701 ft | 321 kts | 174° |
| 2026-05-06 21:52 | -34.22482 | -58.63860 | 5340 ft | 316 kts | 173° |
| 2026-05-06 21:52 | -34.24656 | -58.63451 | 5011 ft | 316 kts | 173° |
| 2026-05-06 21:53 | -34.26807 | -58.63047 | 4667 ft | 316 kts | 173° |
| 2026-05-06 21:53 | -34.29005 | -58.62633 | 4332 ft | 316 kts | 173° |
| 2026-05-06 21:53 | -34.31170 | -58.62226 | 4066 ft | 313 kts | 173° |
| 2026-05-06 21:53 | -34.33311 | -58.61824 | 3750 ft | 312 kts | 173° |
| 2026-05-06 21:54 | -34.35449 | -58.61420 | 3463 ft | 310 kts | 173° |
| 2026-05-06 21:54 | -34.37585 | -58.61017 | 3292 ft | 304 kts | 173° |
| 2026-05-06 21:54 | -34.39636 | -58.60627 | 3230 ft | 297 kts | 173° |
| 2026-05-06 21:54 | -34.41632 | -58.60251 | 3042 ft | 285 kts | 172° |
| 2026-05-06 21:55 | -34.43568 | -58.59885 | 2978 ft | 271 kts | 172° |
| 2026-05-06 21:55 | -34.45380 | -58.59483 | 2955 ft | 255 kts | 159° |
| 2026-05-06 21:55 | -34.46800 | -58.58398 | 2871 ft | 233 kts | 126° |
| 2026-05-06 21:55 | -34.47667 | -58.56862 | 2757 ft | 211 kts | 112° |
| 2026-05-06 21:56 | -34.48354 | -58.55360 | 2489 ft | 201 kts | 111° |
| 2026-05-06 21:56 | -34.49059 | -58.53933 | 2198 ft | 195 kts | 115° |
| 2026-05-06 21:56 | -34.49789 | -58.52591 | 1949 ft | 185 kts | 116° |
| 2026-05-06 21:56 | -34.50495 | -58.51339 | 1698 ft | 173 kts | 116° |
| 2026-05-06 21:57 | -34.51147 | -58.50165 | 1453 ft | 163 kts | 116° |
| 2026-05-06 21:57 | -34.51752 | -58.49067 | 1244 ft | 152 kts | 116° |
| 2026-05-06 21:57 | -34.52321 | -58.48008 | 1049 ft | 148 kts | 117° |
| 2026-05-06 21:57 | -34.52896 | -58.46980 | 882 ft | 146 kts | 119° |
| 2026-05-06 21:58 | -34.53473 | -58.45975 | 708 ft | 144 kts | 120° |
| 2026-05-06 21:58 | -34.54027 | -58.44982 | 523 ft | 141 kts | 120° |
| 2026-05-06 21:58 | -34.54563 | -58.44008 | 331 ft | 138 kts | 121° |
| 2026-05-06 21:58 | -34.55100 | -58.43050 | 155 ft | 136 kts | 122° |
| 2026-05-06 21:59 | -34.55626 | -58.42108 | 27 ft | 127 kts | 126° |
| 2026-05-06 21:59 | -34.56034 | -58.41375 | 27 ft | 80 kts | 124° |
| 2026-05-06 21:59 | -34.56256 | -58.40978 | 27 ft | 39 kts | 126° |
| 2026-05-06 21:59 | -34.56375 | -58.40769 | 27 ft | 18 kts | 125° |
| 2026-05-06 22:00 | -34.56401 | -58.40673 | 27 ft | 11 kts | 54° |
| 2026-05-06 22:00 | -34.56326 | -58.40684 | 27 ft | 12 kts | 317° |
| 2026-05-06 22:00 | -34.56266 | -58.40753 | 27 ft | 6 kts | 319° |
| 2026-05-06 22:00 | -34.56249 | -58.40772 | 27 ft | 0 kts | 317° |
| 2026-05-06 22:01 | -34.56247 | -58.40773 | 27 ft | 2 kts | 317° |
| 2026-05-06 22:01 | -34.56208 | -58.40819 | 27 ft | 9 kts | 316° |
| 2026-05-06 22:01 | -34.56170 | -58.40884 | 27 ft | 9 kts | 295° |
| 2026-05-06 22:01 | -34.56123 | -58.40970 | 27 ft | 14 kts | 307° |
| 2026-05-06 22:02 | -34.56062 | -58.41069 | 27 ft | 14 kts | 308° |
| 2026-05-06 22:02 | -34.56003 | -58.41164 | 27 ft | 13 kts | 307° |
| 2026-05-06 22:02 | -34.55950 | -58.41254 | 27 ft | 11 kts | 305° |
| 2026-05-06 22:02 | -34.55895 | -58.41296 | 27 ft | 9 kts | 10° |
| 2026-05-06 22:03 | -34.55835 | -58.41272 | 27 ft | 8 kts | 27° |
| 2026-05-06 22:03 | -34.55806 | -58.41248 | 27 ft | 2 kts | 36° |
| 2026-05-06 22:03 | -34.55803 | -58.41245 | 27 ft | 0 kts | 37° |